Time;durP1;ratioP1;P1;durP2;ratioP2;P2;SDS_P1;SDS_P2;PMS_P1;PMS_P2;Temp;Humidity;BMP_temperature;BMP_pressure;BME280_temperature;BME280_humidity;BME280_pressure;Samples;Min_cycle;Max_cycle;Signal;HPM_P1;HPM_P2
2023/08/08 00:00:16;;;;;;;;;;;13.50;99.90;;;;;;5133408;27;19907;-46
2023/08/08 00:02:41;;;;;;;;;;;13.50;99.90;;;;;;5134336;27;19908;-43
2023/08/08 00:05:07;;;;;;;;;;;13.60;99.90;;;;;;5134031;27;19908;-46
2023/08/08 00:07:33;;;;;;;;;;;13.60;99.90;;;;;;5133179;27;19915;-44
2023/08/08 00:09:58;;;;;;;;;;;13.60;99.90;;;;;;5134179;27;19911;-45
2023/08/08 00:12:24;;;;;;;;;;;13.70;99.90;;;;;;5133966;27;20002;-47
2023/08/08 00:14:49;;;;;;;;;;;13.70;99.90;;;;;;5133115;27;19908;-45
2023/08/08 00:17:15;;;;;;;;;;;13.70;99.90;;;;;;5133039;27;19997;-47
2023/08/08 00:19:40;;;;;;;;;;;13.70;99.90;;;;;;5134073;27;19915;-44
2023/08/08 00:22:06;;;;;;;;;;;13.80;99.90;;;;;;5132967;27;20282;-45
2023/08/08 00:24:31;;;;;;;;;;;13.70;99.90;;;;;;5133765;27;19914;-44
2023/08/08 00:26:57;;;;;;;;;;;13.80;99.90;;;;;;5133557;27;19919;-45
2023/08/08 00:29:22;;;;;;;;;;;13.80;99.90;;;;;;5132955;28;20198;-43
2023/08/08 00:31:48;;;;;;;;;;;13.80;99.90;;;;;;5133588;28;19908;-44
2023/08/08 00:34:13;;;;;;;;;;;13.80;99.90;;;;;;5133690;28;19919;-45
2023/08/08 00:36:39;;;;;;;;;;;13.80;99.90;;;;;;5132842;28;20429;-44
2023/08/08 00:39:04;;;;;;;;;;;13.80;99.90;;;;;;5133523;28;19915;-45
2023/08/08 00:41:30;;;;;;;;;;;13.80;99.90;;;;;;5132740;28;20411;-44
2023/08/08 00:43:55;;;;;;;;;;;13.80;99.90;;;;;;5133277;28;20018;-46
2023/08/08 00:46:21;;;;;;;;;;;13.80;99.90;;;;;;5133458;28;19922;-44
2023/08/08 00:48:47;;;;;;;;;;;13.80;99.90;;;;;;5132714;28;19962;-45
2023/08/08 00:51:13;;;;;;;;;;;13.80;99.90;;;;;;5133520;28;19939;-45
2023/08/08 00:53:39;;;;;;;;;;;13.80;99.90;;;;;;5133400;28;20357;-44
2023/08/08 00:56:05;;;;;;;;;;;13.80;99.90;;;;;;5132734;28;19907;-46
2023/08/08 00:58:30;;;;;;;;;;;13.80;99.90;;;;;;5133492;28;20009;-44
2023/08/08 01:00:57;;;;;;;;;;;13.80;99.90;;;;;;5133380;28;19998;-45
2023/08/08 01:03:23;;;;;;;;;;;13.80;99.90;;;;;;5132650;28;19908;-45
2023/08/08 01:05:53;;;;;;;;;;;13.80;99.90;;;;;;5133162;28;19911;-46
2023/08/08 01:08:21;;;;;;;;;;;13.90;99.90;;;;;;5133349;28;19907;-44
2023/08/08 01:10:47;;;;;;;;;;;13.80;99.90;;;;;;5132444;28;19908;-46
2023/08/08 01:13:16;;;;;;;;;;;13.80;99.90;;;;;;5133429;28;19960;-45
2023/08/08 01:15:42;;;;;;;;;;;13.80;99.90;;;;;;5133279;28;19930;-46
2023/08/08 01:18:09;;;;;;;;;;;13.80;99.90;;;;;;5132175;28;19914;-45
2023/08/08 01:20:35;;;;;;;;;;;13.80;99.90;;;;;;5133172;28;19907;-45
2023/08/08 01:23:33;;;;;;;;;;;13.80;99.90;;;;;;5133182;28;19912;-45
2023/08/08 01:25:59;;;;;;;;;;;13.80;99.90;;;;;;5086638;28;20006;-45
2023/08/08 01:28:24;;;;;;;;;;;13.80;99.90;;;;;;5135801;27;20451;-46
2023/08/08 01:30:51;;;;;;;;;;;13.80;99.90;;;;;;5136170;27;19907;-44
2023/08/08 01:33:17;;;;;;;;;;;13.80;99.90;;;;;;5136876;27;19972;-48
2023/08/08 01:35:52;;;;;;;;;;;13.80;99.90;;;;;;5136832;27;20006;-44
2023/08/08 01:38:19;;;;;;;;;;;13.80;99.90;;;;;;5136234;27;19908;-45
2023/08/08 01:40:45;;;;;;;;;;;13.80;99.90;;;;;;5136770;27;19907;-46
2023/08/08 01:43:11;;;;;;;;;;;13.80;99.90;;;;;;5136503;27;19948;-45
2023/08/08 01:45:37;;;;;;;;;;;13.80;99.90;;;;;;5135855;27;19955;-44
2023/08/08 01:48:07;;;;;;;;;;;13.70;99.90;;;;;;5136564;27;19914;-45
2023/08/08 01:50:32;;;;;;;;;;;13.80;99.90;;;;;;5136607;27;19912;-44
2023/08/08 01:52:58;;;;;;;;;;;13.80;99.90;;;;;;5135908;27;19964;-45
2023/08/08 01:55:23;;;;;;;;;;;13.70;99.90;;;;;;5136384;27;20006;-44
2023/08/08 01:57:49;;;;;;;;;;;13.70;99.90;;;;;;5136424;27;19908;-44
2023/08/08 02:00:14;;;;;;;;;;;13.70;99.90;;;;;;5135603;27;19914;-45
2023/08/08 02:02:40;;;;;;;;;;;13.70;99.90;;;;;;5136264;27;19914;-45
2023/08/08 02:05:05;;;;;;;;;;;13.70;99.90;;;;;;5136338;27;19956;-45
2023/08/08 02:07:31;;;;;;;;;;;13.70;99.90;;;;;;5135585;27;20369;-44
2023/08/08 02:09:56;;;;;;;;;;;13.70;99.90;;;;;;5136166;27;19914;-44
2023/08/08 02:12:22;;;;;;;;;;;13.70;99.90;;;;;;5136234;27;19914;-45
2023/08/08 02:14:47;;;;;;;;;;;13.70;99.90;;;;;;5135277;27;20011;-47
2023/08/08 02:17:13;;;;;;;;;;;13.80;99.90;;;;;;5136124;27;20268;-46
2023/08/08 02:19:38;;;;;;;;;;;13.70;99.90;;;;;;5136043;27;19912;-45
2023/08/08 02:22:04;;;;;;;;;;;13.80;99.90;;;;;;5135156;27;19941;-44
2023/08/08 02:24:29;;;;;;;;;;;13.70;99.90;;;;;;5135984;27;20380;-44
2023/08/08 02:26:55;;;;;;;;;;;13.70;99.90;;;;;;5135243;27;19964;-48
2023/08/08 02:29:20;;;;;;;;;;;13.70;99.90;;;;;;5135650;27;20278;-45
2023/08/08 02:31:46;;;;;;;;;;;13.70;99.90;;;;;;5135755;27;19946;-46
2023/08/08 02:34:11;;;;;;;;;;;13.80;99.90;;;;;;5135053;27;20059;-48
2023/08/08 02:36:37;;;;;;;;;;;13.80;99.90;;;;;;5135674;27;19929;-45
2023/08/08 02:39:03;;;;;;;;;;;13.70;99.90;;;;;;5134601;27;19908;-45
2023/08/08 02:41:28;;;;;;;;;;;13.80;99.90;;;;;;5134820;27;19908;-46
2023/08/08 02:43:54;;;;;;;;;;;13.80;99.90;;;;;;5135177;27;19952;-44
2023/08/08 02:46:19;;;;;;;;;;;13.70;99.90;;;;;;5135394;27;20359;-44
2023/08/08 02:48:45;;;;;;;;;;;13.70;99.90;;;;;;5134594;27;19908;-45
2023/08/08 02:51:10;;;;;;;;;;;13.70;99.90;;;;;;5135405;27;19946;-46
2023/08/08 02:53:36;;;;;;;;;;;13.80;99.90;;;;;;5135492;27;20303;-48
2023/08/08 02:56:01;;;;;;;;;;;13.70;99.90;;;;;;5134465;27;20373;-47
2023/08/08 02:58:26;;;;;;;;;;;13.80;99.90;;;;;;5132860;27;19915;-44
2023/08/08 03:00:52;;;;;;;;;;;13.70;99.90;;;;;;5114530;28;19933;-46
2023/08/08 03:03:17;;;;;;;;;;;13.80;99.90;;;;;;5113870;28;19955;-44
2023/08/08 03:05:44;;;;;;;;;;;13.80;99.90;;;;;;5114472;28;20431;-45
2023/08/08 03:08:09;;;;;;;;;;;13.80;99.90;;;;;;5114591;28;19908;-49
2023/08/08 03:10:35;;;;;;;;;;;13.80;99.90;;;;;;5113741;28;20377;-48
2023/08/08 03:13:00;;;;;;;;;;;13.80;99.90;;;;;;5114360;28;19912;-44
2023/08/08 03:15:26;;;;;;;;;;;13.80;99.90;;;;;;5114320;28;19912;-45
2023/08/08 03:17:51;;;;;;;;;;;13.80;99.90;;;;;;5113371;28;19908;-44
2023/08/08 03:20:17;;;;;;;;;;;13.80;99.90;;;;;;5114260;28;19907;-46
2023/08/08 03:22:42;;;;;;;;;;;13.80;99.90;;;;;;5114224;28;19912;-44
2023/08/08 03:25:08;;;;;;;;;;;13.80;99.90;;;;;;5113385;28;19907;-46
2023/08/08 03:27:33;;;;;;;;;;;13.80;99.90;;;;;;5114013;28;20064;-46
2023/08/08 03:29:59;;;;;;;;;;;13.80;99.90;;;;;;5114037;28;19908;-45
2023/08/08 03:32:24;;;;;;;;;;;13.80;99.90;;;;;;5113354;28;19908;-46
2023/08/08 03:34:50;;;;;;;;;;;13.80;99.90;;;;;;5113946;28;20438;-45
2023/08/08 03:37:15;;;;;;;;;;;13.70;99.90;;;;;;5113393;28;19908;-43
2023/08/08 03:39:41;;;;;;;;;;;13.80;99.90;;;;;;5113808;28;20320;-45
2023/08/08 03:42:06;;;;;;;;;;;13.80;99.90;;;;;;5113829;28;20004;-45
2023/08/08 03:44:32;;;;;;;;;;;13.80;99.90;;;;;;5112775;28;20014;-45
2023/08/08 03:46:57;;;;;;;;;;;13.80;99.90;;;;;;5113633;28;19955;-45
2023/08/08 03:49:23;;;;;;;;;;;13.80;99.90;;;;;;5113997;28;19908;-45
2023/08/08 03:51:48;;;;;;;;;;;13.80;99.90;;;;;;5112671;28;19950;-45
2023/08/08 03:54:15;;;;;;;;;;;13.80;99.90;;;;;;5113796;28;19946;-45
2023/08/08 03:56:40;;;;;;;;;;;13.80;99.90;;;;;;5113615;28;19961;-46
2023/08/08 03:59:06;;;;;;;;;;;13.80;99.90;;;;;;5112878;28;19912;-45
2023/08/08 04:01:32;;;;;;;;;;;13.80;99.90;;;;;;5113554;28;20324;-47
2023/08/08 04:03:57;;;;;;;;;;;13.80;99.90;;;;;;5113454;28;19908;-44
2023/08/08 04:06:23;;;;;;;;;;;13.80;99.90;;;;;;5112663;28;19963;-44
2023/08/08 04:08:48;;;;;;;;;;;13.80;99.90;;;;;;5113401;28;19915;-44
2023/08/08 04:11:14;;;;;;;;;;;13.80;99.90;;;;;;5113416;28;19977;-45
2023/08/08 04:13:39;;;;;;;;;;;13.70;99.90;;;;;;5112460;28;20268;-47
2023/08/08 04:16:05;;;;;;;;;;;13.80;99.90;;;;;;5113303;28;19961;-45
2023/08/08 04:18:30;;;;;;;;;;;13.70;99.90;;;;;;5113368;28;19912;-44
2023/08/08 04:20:55;;;;;;;;;;;13.70;99.90;;;;;;5112446;28;19914;-45
2023/08/08 04:23:25;;;;;;;;;;;13.60;99.90;;;;;;5113398;28;19912;-44
2023/08/08 04:25:50;;;;;;;;;;;13.70;99.90;;;;;;5113111;28;19963;-46
2023/08/08 04:28:16;;;;;;;;;;;13.70;99.90;;;;;;5112444;28;19972;-44
2023/08/08 04:30:41;;;;;;;;;;;13.70;99.90;;;;;;5113177;28;19954;-45
2023/08/08 04:33:07;;;;;;;;;;;13.60;99.90;;;;;;5124555;28;19912;-47
2023/08/08 04:35:32;;;;;;;;;;;13.70;99.90;;;;;;5112413;28;20024;-44
2023/08/08 04:37:58;;;;;;;;;;;13.70;99.90;;;;;;5113092;28;19911;-45
2023/08/08 04:40:23;;;;;;;;;;;13.70;99.90;;;;;;5113114;28;19922;-47
2023/08/08 04:42:49;;;;;;;;;;;13.70;99.90;;;;;;5112076;28;19919;-45
2023/08/08 04:45:14;;;;;;;;;;;13.70;99.90;;;;;;5113333;28;19918;-47
2023/08/08 04:47:40;;;;;;;;;;;13.70;99.90;;;;;;5112190;28;19969;-43
2023/08/08 04:50:05;;;;;;;;;;;13.60;99.90;;;;;;5112933;28;20009;-46
2023/08/08 04:52:31;;;;;;;;;;;13.70;99.90;;;;;;5112860;28;19908;-46
2023/08/08 04:54:56;;;;;;;;;;;13.70;99.90;;;;;;5121655;28;19916;-44
2023/08/08 04:57:22;;;;;;;;;;;13.80;99.90;;;;;;5132567;28;19912;-44
2023/08/08 04:59:47;;;;;;;;;;;13.80;99.90;;;;;;5133252;28;19973;-44
2023/08/08 05:02:13;;;;;;;;;;;13.80;99.90;;;;;;5132854;27;19915;-46
2023/08/08 05:04:38;;;;;;;;;;;13.70;99.90;;;;;;5131241;27;20282;-45
2023/08/08 05:07:04;;;;;;;;;;;13.70;99.90;;;;;;5127511;27;19923;-45
2023/08/08 05:09:29;;;;;;;;;;;13.60;99.90;;;;;;5136647;27;20377;-45
2023/08/08 05:11:55;;;;;;;;;;;13.60;99.90;;;;;;5137251;27;20293;-46
2023/08/08 05:14:20;;;;;;;;;;;13.60;99.90;;;;;;5128533;27;19948;-43
2023/08/08 05:16:46;;;;;;;;;;;13.60;99.90;;;;;;5120792;27;20388;-46
2023/08/08 05:19:11;;;;;;;;;;;13.60;99.90;;;;;;5137212;27;19943;-44
2023/08/08 05:21:37;;;;;;;;;;;13.60;99.90;;;;;;5137048;27;19937;-45
2023/08/08 05:24:03;;;;;;;;;;;13.60;99.90;;;;;;5136353;27;19907;-46
2023/08/08 05:26:28;;;;;;;;;;;13.60;99.90;;;;;;5136683;27;19916;-44
2023/08/08 05:28:54;;;;;;;;;;;13.60;99.90;;;;;;5135633;27;19922;-45
2023/08/08 05:31:19;;;;;;;;;;;13.70;99.90;;;;;;5136064;27;19911;-44
2023/08/08 05:33:45;;;;;;;;;;;13.80;99.90;;;;;;5136354;27;20304;-45
2023/08/08 05:36:10;;;;;;;;;;;13.90;99.90;;;;;;5136408;27;19937;-44
2023/08/08 05:38:36;;;;;;;;;;;14.10;99.90;;;;;;5135772;27;20372;-43
2023/08/08 05:41:01;;;;;;;;;;;14.10;99.90;;;;;;5135637;27;19964;-45
2023/08/08 05:43:27;;;;;;;;;;;14.30;99.90;;;;;;5134907;27;20017;-45
2023/08/08 05:45:53;;;;;;;;;;;14.40;99.90;;;;;;5135224;27;20010;-45
2023/08/08 05:48:19;;;;;;;;;;;14.50;99.90;;;;;;5137537;27;19954;-43
2023/08/08 05:50:44;;;;;;;;;;;14.60;99.90;;;;;;5138993;27;19948;-44
2023/08/08 05:53:10;;;;;;;;;;;14.70;99.90;;;;;;5139508;27;19964;-45
2023/08/08 05:55:35;;;;;;;;;;;14.80;99.90;;;;;;5136323;27;19908;-44
2023/08/08 05:58:01;;;;;;;;;;;14.80;99.90;;;;;;5135634;27;19915;-46
2023/08/08 06:00:26;;;;;;;;;;;14.80;99.90;;;;;;5136231;27;19961;-46
2023/08/08 06:02:52;;;;;;;;;;;14.80;99.90;;;;;;5136154;27;19908;-44
2023/08/08 06:05:17;;;;;;;;;;;14.70;99.90;;;;;;5135523;27;20099;-44
2023/08/08 06:07:43;;;;;;;;;;;14.70;99.90;;;;;;5135648;27;19922;-45
2023/08/08 06:10:09;;;;;;;;;;;14.80;99.90;;;;;;5127918;27;19933;-45
2023/08/08 06:12:34;;;;;;;;;;;14.70;99.90;;;;;;5130359;27;19907;-43
2023/08/08 06:15:00;;;;;;;;;;;14.70;99.90;;;;;;5135705;27;19980;-45
2023/08/08 06:17:26;;;;;;;;;;;14.70;99.90;;;;;;5135573;27;19907;-44
2023/08/08 06:19:51;;;;;;;;;;;14.80;99.90;;;;;;5135348;27;19922;-43
2023/08/08 06:22:17;;;;;;;;;;;14.80;99.90;;;;;;5136286;27;19919;-45
2023/08/08 06:24:42;;;;;;;;;;;14.80;99.90;;;;;;5138792;27;19908;-44
2023/08/08 06:27:08;;;;;;;;;;;14.90;99.90;;;;;;5134398;27;19919;-45
2023/08/08 06:29:33;;;;;;;;;;;15.00;99.90;;;;;;5135272;27;19962;-43
2023/08/08 06:31:59;;;;;;;;;;;15.00;99.90;;;;;;5134900;27;19908;-44
2023/08/08 06:34:24;;;;;;;;;;;15.10;99.90;;;;;;5135512;27;19960;-44
2023/08/08 06:36:50;;;;;;;;;;;15.10;99.90;;;;;;5135993;27;19907;-46
2023/08/08 06:39:15;;;;;;;;;;;15.30;99.90;;;;;;5136076;27;20285;-45
2023/08/08 06:41:41;;;;;;;;;;;15.30;99.90;;;;;;5132744;27;19915;-44
2023/08/08 06:44:06;;;;;;;;;;;15.40;99.90;;;;;;5131916;27;19970;-44
2023/08/08 06:46:32;;;;;;;;;;;15.50;99.90;;;;;;5127592;27;19919;-45
2023/08/08 06:48:59;;;;;;;;;;;15.50;99.90;;;;;;5125583;27;20002;-43
2023/08/08 06:51:25;;;;;;;;;;;15.60;99.90;;;;;;5129798;27;19938;-44
2023/08/08 06:53:51;;;;;;;;;;;15.60;99.90;;;;;;5141187;27;20370;-44
2023/08/08 06:56:16;;;;;;;;;;;15.70;99.90;;;;;;5130006;27;19919;-46
2023/08/08 06:58:41;;;;;;;;;;;15.80;99.90;;;;;;5133244;27;19919;-46
2023/08/08 07:01:07;;;;;;;;;;;15.80;99.90;;;;;;5127318;27;19912;-44
2023/08/08 07:03:32;;;;;;;;;;;15.90;99.90;;;;;;5122383;27;20457;-46
2023/08/08 07:05:58;;;;;;;;;;;15.90;99.90;;;;;;5130308;27;19919;-46
2023/08/08 07:08:23;;;;;;;;;;;16.00;99.90;;;;;;5133673;27;20320;-44
2023/08/08 07:10:49;;;;;;;;;;;16.00;99.90;;;;;;5131392;27;19934;-45
2023/08/08 07:13:15;;;;;;;;;;;16.10;99.90;;;;;;5121558;27;19912;-46
2023/08/08 07:15:41;;;;;;;;;;;16.20;99.90;;;;;;5123369;27;20281;-45
2023/08/08 07:18:06;;;;;;;;;;;16.30;99.90;;;;;;5121224;27;19916;-44
2023/08/08 07:20:32;;;;;;;;;;;16.30;99.90;;;;;;5119374;27;19959;-44
2023/08/08 07:22:59;;;;;;;;;;;16.40;99.90;;;;;;5136092;27;19912;-44
2023/08/08 07:25:24;;;;;;;;;;;16.40;99.90;;;;;;5127787;27;19998;-44
2023/08/08 07:27:50;;;;;;;;;;;16.50;99.90;;;;;;5135173;27;20002;-47
2023/08/08 07:30:15;;;;;;;;;;;16.60;99.90;;;;;;5134848;27;19908;-45
2023/08/08 07:32:41;;;;;;;;;;;16.60;99.90;;;;;;5143930;27;20270;-43
2023/08/08 07:35:08;;;;;;;;;;;16.70;99.90;;;;;;5137305;27;19923;-43
2023/08/08 07:37:34;;;;;;;;;;;16.80;99.90;;;;;;5147232;27;20257;-47
2023/08/08 07:40:00;;;;;;;;;;;16.80;99.90;;;;;;5154861;27;19911;-45
2023/08/08 07:42:26;;;;;;;;;;;16.90;99.90;;;;;;5155919;27;19954;-45
2023/08/08 07:44:51;;;;;;;;;;;16.90;99.90;;;;;;5154886;27;19972;-43
2023/08/08 07:47:17;;;;;;;;;;;16.90;99.90;;;;;;5141014;27;19953;-45
2023/08/08 07:49:43;;;;;;;;;;;17.10;99.90;;;;;;5134945;27;19931;-45
2023/08/08 07:52:08;;;;;;;;;;;17.00;99.90;;;;;;5134297;27;20254;-45
2023/08/08 07:54:34;;;;;;;;;;;17.00;99.90;;;;;;5135004;27;19911;-44
2023/08/08 07:57:00;;;;;;;;;;;17.10;99.90;;;;;;5136966;27;20305;-43
2023/08/08 07:59:25;;;;;;;;;;;17.10;99.90;;;;;;5134587;27;19908;-45
2023/08/08 08:01:51;;;;;;;;;;;17.10;99.90;;;;;;5133685;27;19907;-46
2023/08/08 08:04:17;;;;;;;;;;;17.20;99.90;;;;;;5116848;27;20006;-45
2023/08/08 08:06:42;;;;;;;;;;;17.30;99.90;;;;;;5109775;27;19937;-45
2023/08/08 08:09:08;;;;;;;;;;;17.30;99.90;;;;;;5131327;27;19994;-44
2023/08/08 08:11:33;;;;;;;;;;;17.30;99.90;;;;;;5132725;27;20238;-47
2023/08/08 08:13:59;;;;;;;;;;;17.30;99.90;;;;;;5132701;27;19950;-44
2023/08/08 08:16:24;;;;;;;;;;;17.40;99.90;;;;;;5129634;27;19915;-44
2023/08/08 08:18:50;;;;;;;;;;;17.40;99.90;;;;;;5124998;27;20025;-44
2023/08/08 08:21:17;;;;;;;;;;;17.30;99.90;;;;;;5119241;27;19962;-44
2023/08/08 08:23:43;;;;;;;;;;;17.40;99.90;;;;;;5138068;27;19911;-45
2023/08/08 08:26:09;;;;;;;;;;;17.30;99.90;;;;;;5131311;27;19927;-44
2023/08/08 08:28:34;;;;;;;;;;;17.40;99.90;;;;;;5129523;27;19919;-48
2023/08/08 08:31:04;;;;;;;;;;;17.40;99.90;;;;;;5133542;27;19920;-43
2023/08/08 08:33:29;;;;;;;;;;;17.40;99.90;;;;;;5138675;27;19919;-45
2023/08/08 08:35:55;;;;;;;;;;;17.40;99.90;;;;;;5134106;27;19916;-44
2023/08/08 08:38:20;;;;;;;;;;;17.50;99.90;;;;;;5136701;27;20322;-45
2023/08/08 08:40:48;;;;;;;;;;;17.50;99.90;;;;;;5130357;27;19972;-44
2023/08/08 08:43:13;;;;;;;;;;;17.50;99.90;;;;;;5136936;27;20332;-50
2023/08/08 08:45:40;;;;;;;;;;;17.50;99.90;;;;;;5136451;27;19915;-43
2023/08/08 08:48:08;;;;;;;;;;;17.40;99.90;;;;;;5137040;27;19911;-44
2023/08/08 08:50:34;;;;;;;;;;;17.40;99.90;;;;;;5138523;27;19908;-45
2023/08/08 08:53:00;;;;;;;;;;;17.50;99.90;;;;;;5138094;27;19907;-46
2023/08/08 08:55:26;;;;;;;;;;;17.50;99.90;;;;;;5137042;27;19960;-45
2023/08/08 08:57:52;;;;;;;;;;;17.60;99.90;;;;;;5137690;27;20376;-46
2023/08/08 09:00:18;;;;;;;;;;;17.60;99.90;;;;;;5137636;27;19908;-43
2023/08/08 09:02:44;;;;;;;;;;;17.60;99.90;;;;;;5136316;27;19912;-45
2023/08/08 09:05:10;;;;;;;;;;;17.50;99.90;;;;;;5137539;27;19908;-44
2023/08/08 09:07:36;;;;;;;;;;;17.40;99.90;;;;;;5137482;27;19915;-45
2023/08/08 09:10:03;;;;;;;;;;;17.30;99.90;;;;;;5136558;27;19914;-45
2023/08/08 09:12:29;;;;;;;;;;;17.20;99.90;;;;;;5137286;27;20375;-45
2023/08/08 09:14:56;;;;;;;;;;;17.20;99.90;;;;;;5136556;27;19908;-44
2023/08/08 09:17:21;;;;;;;;;;;17.20;99.90;;;;;;5137374;27;19911;-44
2023/08/08 09:19:47;;;;;;;;;;;17.30;99.90;;;;;;5137208;27;20445;-43
2023/08/08 09:22:13;;;;;;;;;;;17.40;99.90;;;;;;5149846;27;20278;-43
2023/08/08 09:24:40;;;;;;;;;;;17.40;99.90;;;;;;5157857;27;19907;-44
2023/08/08 09:27:06;;;;;;;;;;;17.40;99.90;;;;;;5157805;27;19915;-44
2023/08/08 09:29:32;;;;;;;;;;;17.30;99.90;;;;;;5157069;27;19952;-45
2023/08/08 09:31:58;;;;;;;;;;;17.00;99.90;;;;;;5157747;27;19951;-45
2023/08/08 09:34:28;;;;;;;;;;;16.80;99.90;;;;;;5157686;27;19907;-44
2023/08/08 09:36:53;;;;;;;;;;;16.70;99.90;;;;;;5156899;27;19907;-45
2023/08/08 09:39:19;;;;;;;;;;;16.70;99.90;;;;;;5157569;27;20014;-49
2023/08/08 09:41:46;;;;;;;;;;;16.70;99.90;;;;;;5157551;27;19911;-46
2023/08/08 09:44:11;;;;;;;;;;;16.70;99.90;;;;;;5152714;27;19919;-44
2023/08/08 09:46:37;;;;;;;;;;;16.60;99.90;;;;;;5136636;27;19942;-44
2023/08/08 09:49:03;;;;;;;;;;;16.60;99.90;;;;;;5136217;27;20389;-47
2023/08/08 09:51:28;;;;;;;;;;;16.80;99.90;;;;;;5136150;27;20331;-44
2023/08/08 09:53:54;;;;;;;;;;;16.90;99.90;;;;;;5136630;27;20006;-49
2023/08/08 09:56:20;;;;;;;;;;;16.80;99.90;;;;;;5136609;27;19908;-47
2023/08/08 09:58:46;;;;;;;;;;;16.80;99.90;;;;;;5135752;27;19908;-45
2023/08/08 10:01:12;;;;;;;;;;;16.70;99.90;;;;;;5136527;27;19999;-43
2023/08/08 10:03:38;;;;;;;;;;;16.60;99.90;;;;;;5136357;27;19919;-44
2023/08/08 10:06:03;;;;;;;;;;;16.80;99.90;;;;;;5152370;27;19919;-43
2023/08/08 10:08:29;;;;;;;;;;;16.90;99.90;;;;;;5157176;27;19907;-44
2023/08/08 10:10:56;;;;;;;;;;;17.20;99.90;;;;;;5156962;27;19911;-44
2023/08/08 10:13:25;;;;;;;;;;;17.40;99.90;;;;;;5156313;27;19914;-44
2023/08/08 10:15:51;;;;;;;;;;;17.50;99.90;;;;;;5156893;27;19954;-43
2023/08/08 10:18:17;;;;;;;;;;;17.60;99.90;;;;;;5156288;27;20377;-45
2023/08/08 10:20:43;;;;;;;;;;;17.40;99.90;;;;;;5151122;27;19912;-45
2023/08/08 10:23:09;;;;;;;;;;;17.30;99.90;;;;;;5136033;27;20388;-45
2023/08/08 10:25:35;;;;;;;;;;;17.30;99.90;;;;;;5135252;27;19954;-42
2023/08/08 10:28:02;;;;;;;;;;;17.40;99.90;;;;;;5135976;27;19987;-45
2023/08/08 10:30:27;;;;;;;;;;;17.70;99.90;;;;;;5135856;27;19908;-43
2023/08/08 10:32:56;;;;;;;;;;;17.90;99.90;;;;;;5134963;27;19990;-43
2023/08/08 10:35:24;;;;;;;;;;;18.10;99.90;;;;;;5136023;27;19982;-45
2023/08/08 10:37:53;;;;;;;;;;;18.40;99.90;;;;;;5135713;27;20362;-43
2023/08/08 10:40:19;;;;;;;;;;;18.60;99.90;;;;;;5134920;27;19922;-45
2023/08/08 10:42:46;;;;;;;;;;;18.70;99.90;;;;;;5131459;27;19912;-46
2023/08/08 10:45:15;;;;;;;;;;;18.90;99.90;;;;;;5134687;27;19915;-45
2023/08/08 10:47:41;;;;;;;;;;;19.00;99.90;;;;;;5131472;27;19998;-45
2023/08/08 10:50:11;;;;;;;;;;;19.20;99.90;;;;;;5130951;27;20362;-47
2023/08/08 10:52:54;;;;;;;;;;;19.30;99.90;;;;;;5133372;27;19912;-45
2023/08/08 10:55:46;;;;;;;;;;;19.20;99.90;;;;;;5132655;27;19911;-45
2023/08/08 10:58:15;;;;;;;;;;;19.30;99.90;;;;;;5130385;27;19918;-48
2023/08/08 11:00:40;;;;;;;;;;;19.30;99.90;;;;;;5129241;27;20336;-43
2023/08/08 11:03:06;;;;;;;;;;;19.10;99.90;;;;;;5114506;28;19947;-45
2023/08/08 11:05:32;;;;;;;;;;;18.80;99.90;;;;;;5130836;27;19919;-49
2023/08/08 11:07:58;;;;;;;;;;;18.80;99.90;;;;;;5124864;27;20004;-44
2023/08/08 11:10:24;;;;;;;;;;;18.90;99.90;;;;;;5129192;27;19950;-44
2023/08/08 11:12:54;;;;;;;;;;;19.00;99.90;;;;;;5124604;27;19994;-43
2023/08/08 11:15:20;;;;;;;;;;;19.20;99.90;;;;;;5132872;27;19911;-43
2023/08/08 11:17:45;;;;;;;;;;;19.50;99.90;;;;;;5134937;27;20483;-43
2023/08/08 11:20:11;;;;;;;;;;;19.60;99.90;;;;;;5124578;27;19912;-45
2023/08/08 11:22:36;;;;;;;;;;;19.50;99.90;;;;;;5132469;27;20006;-45
2023/08/08 11:25:03;;;;;;;;;;;19.00;99.90;;;;;;5126554;27;19912;-45
2023/08/08 11:27:29;;;;;;;;;;;18.90;99.90;;;;;;5127268;27;20293;-45
2023/08/08 11:29:56;;;;;;;;;;;18.80;99.90;;;;;;5118377;27;19912;-47
2023/08/08 11:32:21;;;;;;;;;;;18.70;99.90;;;;;;5123420;27;19919;-44
2023/08/08 11:34:47;;;;;;;;;;;18.80;99.90;;;;;;5133292;27;19912;-49
2023/08/08 11:37:15;;;;;;;;;;;19.00;99.90;;;;;;5133207;27;19914;-46
2023/08/08 11:39:41;;;;;;;;;;;19.10;99.90;;;;;;5134457;27;19908;-44
2023/08/08 11:42:06;;;;;;;;;;;19.30;99.90;;;;;;5134457;27;19998;-49
2023/08/08 11:44:32;;;;;;;;;;;19.30;99.90;;;;;;5148245;27;19945;-45
2023/08/08 11:47:01;;;;;;;;;;;19.10;99.90;;;;;;5154651;27;19919;-43
2023/08/08 11:49:27;;;;;;;;;;;19.10;99.90;;;;;;5155447;27;19957;-44
2023/08/08 11:51:59;;;;;;;;;;;19.00;99.90;;;;;;5153523;27;20202;-44
2023/08/08 11:54:26;;;;;;;;;;;18.90;99.90;;;;;;5154597;27;19911;-44
2023/08/08 11:56:52;;;;;;;;;;;18.90;99.90;;;;;;5154239;27;19914;-44
2023/08/08 11:59:18;;;;;;;;;;;19.00;99.90;;;;;;5155004;27;19907;-44
2023/08/08 12:01:44;;;;;;;;;;;19.00;99.90;;;;;;5152899;27;19907;-46
2023/08/08 12:04:09;;;;;;;;;;;19.10;99.90;;;;;;5133383;27;19994;-47
2023/08/08 12:06:45;;;;;;;;;;;19.00;99.90;;;;;;5134066;27;20014;-45
2023/08/08 12:09:13;;;;;;;;;;;18.90;99.90;;;;;;5134228;27;19943;-45
2023/08/08 12:11:39;;;;;;;;;;;19.10;99.90;;;;;;5133043;27;20350;-42
2023/08/08 12:14:07;;;;;;;;;;;19.30;99.90;;;;;;5133990;27;19914;-44
2023/08/08 12:16:33;;;;;;;;;;;19.30;99.90;;;;;;5134907;27;19946;-45
2023/08/08 12:19:00;;;;;;;;;;;19.10;99.90;;;;;;5133013;27;19961;-43
2023/08/08 12:21:26;;;;;;;;;;;18.90;99.90;;;;;;5134017;27;19960;-46
2023/08/08 12:23:52;;;;;;;;;;;18.80;99.90;;;;;;5133851;27;19911;-44
2023/08/08 12:26:18;;;;;;;;;;;18.60;99.90;;;;;;5133035;27;20023;-44
2023/08/08 12:28:44;;;;;;;;;;;18.50;99.90;;;;;;5133985;27;20371;-45
2023/08/08 12:31:09;;;;;;;;;;;18.50;99.90;;;;;;5133861;27;20069;-44
2023/08/08 12:33:35;;;;;;;;;;;18.80;99.90;;;;;;5133024;27;20437;-44
2023/08/08 12:36:00;;;;;;;;;;;19.10;99.90;;;;;;5150665;27;19971;-46
2023/08/08 12:38:26;;;;;;;;;;;19.30;99.90;;;;;;5154523;27;19907;-44
2023/08/08 12:40:51;;;;;;;;;;;19.50;99.90;;;;;;5153540;27;20369;-43
2023/08/08 12:43:17;;;;;;;;;;;19.50;99.90;;;;;;5154230;27;20013;-44
2023/08/08 12:45:44;;;;;;;;;;;19.40;99.90;;;;;;5148033;27;20034;-47
2023/08/08 12:48:09;;;;;;;;;;;19.40;99.90;;;;;;5127969;28;19912;-43
2023/08/08 12:50:35;;;;;;;;;;;19.50;99.90;;;;;;5129058;27;19922;-47
2023/08/08 12:53:00;;;;;;;;;;;19.70;99.90;;;;;;5122424;27;20378;-44
2023/08/08 12:55:26;;;;;;;;;;;19.90;99.90;;;;;;5122971;27;19942;-46
2023/08/08 12:57:51;;;;;;;;;;;20.10;99.90;;;;;;5136362;27;19911;-44
2023/08/08 13:00:17;;;;;;;;;;;20.20;99.90;;;;;;5125085;28;19919;-45
2023/08/08 13:02:43;;;;;;;;;;;20.40;99.90;;;;;;5140614;27;20010;-45
2023/08/08 13:05:09;;;;;;;;;;;20.60;99.90;;;;;;5134834;27;19908;-45
2023/08/08 13:07:35;;;;;;;;;;;20.60;99.90;;;;;;5143095;27;19919;-45
2023/08/08 13:10:01;;;;;;;;;;;20.40;99.90;;;;;;5117448;28;20478;-44
2023/08/08 13:12:26;;;;;;;;;;;20.30;99.90;;;;;;5145236;27;19907;-43
2023/08/08 13:14:52;;;;;;;;;;;20.30;99.90;;;;;;5134673;27;19951;-45
2023/08/08 13:17:17;;;;;;;;;;;20.30;99.90;;;;;;5126872;27;19957;-44
2023/08/08 13:19:43;;;;;;;;;;;20.50;99.90;;;;;;5131180;27;19912;-44
2023/08/08 13:22:08;;;;;;;;;;;20.40;99.90;;;;;;5129532;27;19912;-45
2023/08/08 13:24:33;;;;;;;;;;;20.40;99.90;;;;;;5135686;27;20394;-44
2023/08/08 13:26:59;;;;;;;;;;;20.30;99.90;;;;;;5135724;27;19980;-43
2023/08/08 13:29:24;;;;;;;;;;;20.40;99.90;;;;;;5142691;27;19965;-45
2023/08/08 13:31:50;;;;;;;;;;;20.80;99.90;;;;;;5156325;27;19911;-44
2023/08/08 13:34:15;;;;;;;;;;;21.40;99.90;;;;;;5152176;27;19958;-45
2023/08/08 13:36:41;;;;;;;;;;;21.30;98.90;;;;;;5147489;27;19954;-45
2023/08/08 13:39:09;;;;;;;;;;;21.40;98.10;;;;;;5122530;27;19919;-44
2023/08/08 13:41:34;;;;;;;;;;;21.70;98.80;;;;;;5137046;27;19964;-44
2023/08/08 13:44:00;;;;;;;;;;;22.00;98.70;;;;;;5146338;27;20022;-44
2023/08/08 13:46:26;;;;;;;;;;;21.90;98.10;;;;;;5125749;27;19930;-46
2023/08/08 13:48:51;;;;;;;;;;;21.70;97.50;;;;;;5143083;27;19919;-43
2023/08/08 13:51:17;;;;;;;;;;;21.20;96.40;;;;;;5157161;27;20396;-46
2023/08/08 13:53:44;;;;;;;;;;;20.50;96.40;;;;;;5141893;27;19911;-45
2023/08/08 13:56:10;;;;;;;;;;;20.50;95.90;;;;;;5135963;27;20271;-44
2023/08/08 13:58:36;;;;;;;;;;;20.40;96.50;;;;;;5143401;27;20694;-44
2023/08/08 14:01:01;;;;;;;;;;;20.40;97.40;;;;;;5155647;27;19922;-43
2023/08/08 14:03:27;;;;;;;;;;;20.20;99.10;;;;;;5143116;27;19947;-48
2023/08/08 14:05:52;;;;;;;;;;;20.10;97.50;;;;;;5137565;27;19911;-45
2023/08/08 14:08:18;;;;;;;;;;;20.00;96.70;;;;;;5146555;27;19911;-46